SHU4591 UHHH-UHNN
Flight info
| Callsign | SHU4591 |
|---|---|
| Flight time | N/A |
| Altitude | 21000 |
| Route | TOMSU4R TOMSU G212 LEKBI LEKBI1M |
| Aircraft | DH8D/M-SDE2E3FGRY/H |
Departure
| Time | 2026-05-09 02:07 |
|---|---|
| Airport | Khabarovsk Novy Airport (UHHH) |
Arrival
| Time | N/A |
|---|---|
| Airport | Nikolayevsk-na-Amure Airport (UHNN) |
| Time | Latitude | Longitude | Altitude | Speed | Heading |
|---|---|---|---|---|---|
| 2026-05-09 01:57 | 48.52410 | 135.17381 | 266 ft | 0 kts | 131° |
| 2026-05-09 02:02 | 48.52388 | 135.17425 | 264 ft | 14 kts | 117° |
| 2026-05-09 02:02 | 48.52410 | 135.17557 | 263 ft | 12 kts | 97° |
| 2026-05-09 02:02 | 48.52368 | 135.17658 | 259 ft | 11 kts | 132° |
| 2026-05-09 02:03 | 48.52306 | 135.17758 | 254 ft | 13 kts | 132° |
| 2026-05-09 02:03 | 48.52309 | 135.17882 | 253 ft | 13 kts | 44° |
| 2026-05-09 02:03 | 48.52377 | 135.17976 | 251 ft | 13 kts | 43° |
| 2026-05-09 02:03 | 48.52447 | 135.18072 | 249 ft | 13 kts | 41° |
| 2026-05-09 02:04 | 48.52516 | 135.18166 | 248 ft | 12 kts | 42° |
| 2026-05-09 02:04 | 48.52581 | 135.18253 | 248 ft | 11 kts | 40° |
| 2026-05-09 02:04 | 48.52658 | 135.18355 | 248 ft | 22 kts | 44° |
| 2026-05-09 02:04 | 48.52806 | 135.18562 | 251 ft | 32 kts | 41° |
| 2026-05-09 02:05 | 48.52933 | 135.18710 | 254 ft | 16 kts | 13° |
| 2026-05-09 02:05 | 48.52946 | 135.18755 | 253 ft | 4 kts | 266° |
| 2026-05-09 02:05 | 48.52934 | 135.18733 | 253 ft | 0 kts | 220° |
| 2026-05-09 02:06 | 48.52884 | 135.18665 | 253 ft | 37 kts | 223° |
| 2026-05-09 02:07 | 48.51711 | 135.17073 | 358 ft | 158 kts | 224° |
| 2026-05-09 02:07 | 48.50940 | 135.15965 | 1076 ft | 157 kts | 224° |
| 2026-05-09 02:07 | 48.50085 | 135.14844 | 1560 ft | 172 kts | 227° |
| 2026-05-09 02:07 | 48.49159 | 135.13437 | 1602 ft | 203 kts | 226° |
| 2026-05-09 02:08 | 48.48122 | 135.12033 | 1855 ft | 200 kts | 224° |
| 2026-05-09 02:08 | 48.47091 | 135.10646 | 2310 ft | 202 kts | 225° |
| 2026-05-09 02:08 | 48.46039 | 135.09225 | 2776 ft | 204 kts | 225° |
| 2026-05-09 02:08 | 48.44975 | 135.07790 | 3211 ft | 205 kts | 225° |
| 2026-05-09 02:09 | 48.43928 | 135.06378 | 3670 ft | 204 kts | 225° |
| 2026-05-09 02:09 | 48.42901 | 135.04910 | 4132 ft | 204 kts | 236° |
| 2026-05-09 02:09 | 48.42514 | 135.02940 | 4602 ft | 208 kts | 282° |
| 2026-05-09 02:09 | 48.43253 | 135.01143 | 5094 ft | 212 kts | 326° |
| 2026-05-09 02:10 | 48.44665 | 135.00319 | 5617 ft | 223 kts | 343° |
| 2026-05-09 02:10 | 48.46187 | 134.99727 | 6128 ft | 234 kts | 345° |
| 2026-05-09 02:10 | 48.47768 | 134.99142 | 6853 ft | 235 kts | 346° |
| 2026-05-09 02:10 | 48.49356 | 134.98634 | 7561 ft | 237 kts | 348° |
| 2026-05-09 02:11 | 48.50959 | 134.98157 | 8355 ft | 235 kts | 349° |
| 2026-05-09 02:11 | 48.52529 | 134.97661 | 9198 ft | 231 kts | 347° |
| 2026-05-09 02:11 | 48.54067 | 134.97054 | 9851 ft | 235 kts | 349° |
| 2026-05-09 02:11 | 48.55703 | 134.96730 | 10436 ft | 241 kts | 0° |
| 2026-05-09 02:12 | 48.57342 | 134.97455 | 10745 ft | 257 kts | 23° |
| 2026-05-09 02:12 | 48.58980 | 134.98383 | 11581 ft | 248 kts | 12° |
| 2026-05-09 02:12 | 48.60600 | 134.98851 | 12692 ft | 232 kts | 10° |
| 2026-05-09 02:12 | 48.62112 | 134.98686 | 13572 ft | 223 kts | 337° |
| 2026-05-09 02:13 | 48.63320 | 134.97276 | 14413 ft | 220 kts | 323° |
| 2026-05-09 02:13 | 48.64581 | 134.96146 | 15181 ft | 209 kts | 352° |
| 2026-05-09 02:13 | 48.65959 | 134.96530 | 15855 ft | 208 kts | 25° |
| 2026-05-09 02:13 | 48.67189 | 134.97665 | 16587 ft | 211 kts | 28° |
| 2026-05-09 02:14 | 48.68417 | 134.98837 | 17335 ft | 211 kts | 28° |
| 2026-05-09 02:14 | 48.69625 | 135.00063 | 18064 ft | 209 kts | 30° |
| 2026-05-09 02:14 | 48.70796 | 135.01308 | 18760 ft | 207 kts | 31° |
| 2026-05-09 02:14 | 48.71943 | 135.02570 | 19440 ft | 207 kts | 31° |
| 2026-05-09 02:15 | 48.73086 | 135.03860 | 20105 ft | 206 kts | 32° |
| 2026-05-09 02:15 | 48.74227 | 135.05174 | 20764 ft | 206 kts | 32° |
| 2026-05-09 02:15 | 48.75347 | 135.06482 | 21409 ft | 205 kts | 33° |
| 2026-05-09 02:15 | 48.76462 | 135.07799 | 22045 ft | 205 kts | 33° |
| 2026-05-09 02:16 | 48.77646 | 135.09206 | 22146 ft | 229 kts | 33° |
| 2026-05-09 02:16 | 48.78930 | 135.10730 | 22051 ft | 242 kts | 34° |
| 2026-05-09 02:16 | 48.80281 | 135.12318 | 22046 ft | 251 kts | 33° |
| 2026-05-09 02:16 | 48.81700 | 135.13972 | 21974 ft | 264 kts | 33° |
| 2026-05-09 02:17 | 48.83200 | 135.15715 | 21836 ft | 277 kts | 33° |
| 2026-05-09 02:17 | 48.84735 | 135.17558 | 21767 ft | 286 kts | 35° |
| 2026-05-09 02:17 | 48.86256 | 135.19447 | 21696 ft | 279 kts | 35° |
| 2026-05-09 02:17 | 48.87736 | 135.21281 | 21582 ft | 272 kts | 34° |
| 2026-05-09 02:18 | 48.89187 | 135.23073 | 21433 ft | 266 kts | 34° |
| 2026-05-09 02:18 | 48.90608 | 135.24826 | 21230 ft | 261 kts | 34° |
| 2026-05-09 02:18 | 48.91991 | 135.26531 | 21017 ft | 260 kts | 34° |
| 2026-05-09 02:18 | 48.93443 | 135.28317 | 20868 ft | 273 kts | 35° |
| 2026-05-09 02:19 | 48.94925 | 135.30145 | 20792 ft | 280 kts | 34° |
| 2026-05-09 02:19 | 48.96449 | 135.32024 | 20769 ft | 284 kts | 34° |
| 2026-05-09 02:19 | 48.97994 | 135.33928 | 20762 ft | 288 kts | 34° |
| 2026-05-09 02:19 | 48.99549 | 135.35846 | 20762 ft | 291 kts | 34° |
| 2026-05-09 02:20 | 49.01145 | 135.37813 | 20750 ft | 294 kts | 34° |
| 2026-05-09 02:20 | 49.02726 | 135.39764 | 20750 ft | 296 kts | 34° |
| 2026-05-09 02:20 | 49.04332 | 135.41748 | 20753 ft | 298 kts | 34° |
| 2026-05-09 02:20 | 49.05944 | 135.43741 | 20754 ft | 300 kts | 34° |
| 2026-05-09 02:21 | 49.07565 | 135.45746 | 20753 ft | 301 kts | 34° |
| 2026-05-09 02:21 | 49.09185 | 135.47749 | 20750 ft | 302 kts | 34° |
| 2026-05-09 02:21 | 49.10830 | 135.49788 | 20752 ft | 303 kts | 34° |
| 2026-05-09 02:21 | 49.12466 | 135.51814 | 20754 ft | 304 kts | 34° |
| 2026-05-09 02:22 | 49.14099 | 135.53841 | 20749 ft | 305 kts | 34° |
| 2026-05-09 02:22 | 49.15564 | 135.55658 | 20747 ft | 306 kts | 34° |
| 2026-05-09 02:22 | 49.17301 | 135.57814 | 20756 ft | 306 kts | 34° |
| 2026-05-09 02:22 | 49.18954 | 135.59869 | 20745 ft | 307 kts | 34° |
| 2026-05-09 02:23 | 49.20603 | 135.61923 | 20739 ft | 307 kts | 34° |
| 2026-05-09 02:23 | 49.22252 | 135.63977 | 20741 ft | 307 kts | 34° |
| 2026-05-09 02:23 | 49.23909 | 135.66042 | 20728 ft | 308 kts | 35° |
| 2026-05-09 02:23 | 49.25573 | 135.68118 | 20726 ft | 308 kts | 35° |
| 2026-05-09 02:24 | 49.27222 | 135.70184 | 20732 ft | 308 kts | 35° |
| 2026-05-09 02:24 | 49.28882 | 135.72276 | 20740 ft | 308 kts | 35° |
| 2026-05-09 02:24 | 49.30527 | 135.74347 | 20744 ft | 308 kts | 35° |
| 2026-05-09 02:24 | 49.32180 | 135.76427 | 20746 ft | 308 kts | 35° |
| 2026-05-09 02:25 | 49.33837 | 135.78523 | 20741 ft | 308 kts | 36° |
| 2026-05-09 02:25 | 49.35504 | 135.80638 | 20738 ft | 308 kts | 35° |
| 2026-05-09 02:25 | 49.36610 | 135.82037 | 20736 ft | 308 kts | 35° |
| 2026-05-09 02:25 | 49.38806 | 135.84813 | 20740 ft | 308 kts | 35° |
| 2026-05-09 02:26 | 49.40469 | 135.86914 | 20731 ft | 308 kts | 35° |
| 2026-05-09 02:26 | 49.42111 | 135.88994 | 20738 ft | 309 kts | 35° |
| 2026-05-09 02:26 | 49.43764 | 135.91095 | 20721 ft | 309 kts | 35° |
| 2026-05-09 02:26 | 49.45421 | 135.93213 | 20719 ft | 309 kts | 35° |
| 2026-05-09 02:27 | 49.47056 | 135.95306 | 20723 ft | 309 kts | 35° |
| 2026-05-09 02:27 | 49.48710 | 135.97418 | 20729 ft | 308 kts | 35° |
| 2026-05-09 02:27 | 49.50373 | 135.99544 | 20727 ft | 308 kts | 35° |
| 2026-05-09 02:27 | 49.52002 | 136.01625 | 20724 ft | 308 kts | 35° |
| 2026-05-09 02:28 | 49.53661 | 136.03751 | 20709 ft | 308 kts | 35° |
| 2026-05-09 02:28 | 49.55306 | 136.05859 | 20720 ft | 308 kts | 35° |
| 2026-05-09 02:28 | 49.56948 | 136.07974 | 20730 ft | 308 kts | 35° |
| 2026-05-09 02:28 | 49.58586 | 136.10082 | 20734 ft | 308 kts | 35° |
| 2026-05-09 02:29 | 49.60237 | 136.12203 | 20732 ft | 309 kts | 35° |
| 2026-05-09 02:29 | 49.61890 | 136.14325 | 20730 ft | 309 kts | 35° |
| 2026-05-09 02:29 | 49.62973 | 136.15715 | 20731 ft | 309 kts | 35° |
| 2026-05-09 02:29 | 49.65185 | 136.18556 | 20730 ft | 309 kts | 35° |
| 2026-05-09 02:30 | 49.66824 | 136.20671 | 20732 ft | 309 kts | 35° |
| 2026-05-09 02:30 | 49.68480 | 136.22813 | 20732 ft | 309 kts | 35° |
| 2026-05-09 02:30 | 49.70112 | 136.24925 | 20722 ft | 309 kts | 35° |
| 2026-05-09 02:30 | 49.71772 | 136.27074 | 20721 ft | 310 kts | 35° |
| 2026-05-09 02:31 | 49.73414 | 136.29205 | 20719 ft | 310 kts | 35° |
| 2026-05-09 02:31 | 49.75055 | 136.31339 | 20722 ft | 310 kts | 35° |
| 2026-05-09 02:31 | 49.76710 | 136.33495 | 20728 ft | 310 kts | 35° |
| 2026-05-09 02:31 | 49.78345 | 136.35619 | 20732 ft | 310 kts | 35° |
| 2026-05-09 02:32 | 49.80004 | 136.37770 | 20732 ft | 310 kts | 34° |
| 2026-05-09 02:32 | 49.81668 | 136.39922 | 20725 ft | 310 kts | 35° |
| 2026-05-09 02:32 | 49.83308 | 136.42049 | 20719 ft | 311 kts | 34° |
| 2026-05-09 02:32 | 49.84949 | 136.44185 | 20729 ft | 310 kts | 35° |
| 2026-05-09 02:33 | 49.86618 | 136.46356 | 20729 ft | 310 kts | 34° |
| 2026-05-09 02:33 | 49.88268 | 136.48503 | 20723 ft | 311 kts | 34° |
| 2026-05-09 02:33 | 49.89910 | 136.50642 | 20725 ft | 311 kts | 34° |
| 2026-05-09 02:33 | 49.91564 | 136.52808 | 20723 ft | 311 kts | 34° |
| 2026-05-09 02:34 | 49.93212 | 136.54974 | 20715 ft | 311 kts | 35° |
| 2026-05-09 02:34 | 49.94855 | 136.57129 | 20715 ft | 311 kts | 34° |
| 2026-05-09 02:34 | 49.96500 | 136.59280 | 20720 ft | 311 kts | 34° |
| 2026-05-09 02:34 | 49.98152 | 136.61441 | 20723 ft | 311 kts | 35° |
| 2026-05-09 02:35 | 49.99818 | 136.63620 | 20722 ft | 311 kts | 34° |
| 2026-05-09 02:35 | 50.01459 | 136.65762 | 20719 ft | 311 kts | 35° |
| 2026-05-09 02:35 | 50.03062 | 136.67866 | 20709 ft | 312 kts | 35° |
| 2026-05-09 02:35 | 50.04710 | 136.70036 | 20715 ft | 312 kts | 35° |
| 2026-05-09 02:36 | 50.06357 | 136.72205 | 20711 ft | 311 kts | 36° |
| 2026-05-09 02:36 | 50.08021 | 136.74394 | 20702 ft | 312 kts | 35° |
| 2026-05-09 02:36 | 50.09657 | 136.76558 | 20713 ft | 311 kts | 35° |
| 2026-05-09 02:36 | 50.11335 | 136.78766 | 20713 ft | 312 kts | 35° |
| 2026-05-09 02:37 | 50.12990 | 136.80951 | 20712 ft | 312 kts | 35° |
| 2026-05-09 02:37 | 50.14370 | 136.82779 | 20709 ft | 312 kts | 35° |
| 2026-05-09 02:37 | 50.16023 | 136.84963 | 20718 ft | 313 kts | 35° |
| 2026-05-09 02:37 | 50.17371 | 136.86751 | 20710 ft | 313 kts | 35° |
| 2026-05-09 02:38 | 50.19033 | 136.88960 | 20703 ft | 313 kts | 35° |
| 2026-05-09 02:38 | 50.20692 | 136.91171 | 20711 ft | 313 kts | 35° |
| 2026-05-09 02:38 | 50.22348 | 136.93370 | 20710 ft | 313 kts | 35° |
| 2026-05-09 02:38 | 50.23991 | 136.95548 | 20706 ft | 313 kts | 35° |
| 2026-05-09 02:39 | 50.25655 | 136.97759 | 20707 ft | 313 kts | 35° |
| 2026-05-09 02:39 | 50.27342 | 136.99840 | 20713 ft | 311 kts | 32° |
| 2026-05-09 02:39 | 50.29050 | 137.01897 | 20711 ft | 311 kts | 32° |
| 2026-05-09 02:39 | 50.30773 | 137.03958 | 20708 ft | 312 kts | 32° |
| 2026-05-09 02:40 | 50.32493 | 137.06061 | 20708 ft | 312 kts | 33° |
| 2026-05-09 02:40 | 50.34176 | 137.08164 | 20708 ft | 313 kts | 33° |
| 2026-05-09 02:40 | 50.35868 | 137.10313 | 20707 ft | 313 kts | 34° |
| 2026-05-09 02:40 | 50.37563 | 137.12492 | 20715 ft | 313 kts | 34° |
| 2026-05-09 02:41 | 50.39222 | 137.14645 | 20716 ft | 314 kts | 34° |
| 2026-05-09 02:41 | 50.40899 | 137.16840 | 20717 ft | 314 kts | 34° |
| 2026-05-09 02:41 | 50.42579 | 137.19047 | 20720 ft | 314 kts | 34° |
| 2026-05-09 02:41 | 50.44232 | 137.21230 | 20714 ft | 315 kts | 34° |
| 2026-05-09 02:42 | 50.45918 | 137.23465 | 20716 ft | 315 kts | 35° |
| 2026-05-09 02:42 | 50.47592 | 137.25690 | 20718 ft | 316 kts | 35° |
| 2026-05-09 02:42 | 50.49255 | 137.27904 | 20721 ft | 316 kts | 35° |
| 2026-05-09 02:42 | 50.50923 | 137.30129 | 20723 ft | 316 kts | 35° |
| 2026-05-09 02:43 | 50.52606 | 137.32379 | 20717 ft | 317 kts | 35° |
| 2026-05-09 02:43 | 50.54283 | 137.34624 | 20707 ft | 317 kts | 35° |
| 2026-05-09 02:43 | 50.55963 | 137.36874 | 20713 ft | 318 kts | 35° |
| 2026-05-09 02:43 | 50.57644 | 137.39131 | 20703 ft | 318 kts | 35° |
| 2026-05-09 02:44 | 50.59306 | 137.41365 | 20706 ft | 318 kts | 35° |
| 2026-05-09 02:44 | 50.60984 | 137.43622 | 20710 ft | 319 kts | 36° |
| 2026-05-09 02:44 | 50.62676 | 137.45901 | 20710 ft | 319 kts | 36° |
| 2026-05-09 02:44 | 50.64359 | 137.48169 | 20711 ft | 319 kts | 35° |
| 2026-05-09 02:45 | 50.66048 | 137.50449 | 20709 ft | 319 kts | 35° |
| 2026-05-09 02:45 | 50.67734 | 137.52725 | 20713 ft | 320 kts | 36° |
| 2026-05-09 02:45 | 50.69402 | 137.54982 | 20709 ft | 320 kts | 36° |
| 2026-05-09 02:45 | 50.71098 | 137.57277 | 20708 ft | 321 kts | 36° |
| 2026-05-09 02:46 | 50.72788 | 137.59566 | 20710 ft | 322 kts | 36° |
| 2026-05-09 02:46 | 50.74485 | 137.61868 | 20708 ft | 322 kts | 36° |
| 2026-05-09 02:46 | 50.76186 | 137.64178 | 20710 ft | 322 kts | 36° |
| 2026-05-09 02:46 | 50.77892 | 137.66496 | 20714 ft | 323 kts | 37° |
| 2026-05-09 02:47 | 50.79573 | 137.68784 | 20716 ft | 324 kts | 37° |
| 2026-05-09 02:47 | 50.81210 | 137.71011 | 20714 ft | 324 kts | 37° |
| 2026-05-09 02:47 | 50.82914 | 137.73335 | 20714 ft | 323 kts | 37° |
| 2026-05-09 02:47 | 50.84604 | 137.75641 | 20713 ft | 324 kts | 37° |
| 2026-05-09 02:48 | 50.86322 | 137.77988 | 20711 ft | 325 kts | 37° |
| 2026-05-09 02:48 | 50.88016 | 137.80302 | 20720 ft | 326 kts | 37° |
| 2026-05-09 02:48 | 50.89737 | 137.82657 | 20710 ft | 327 kts | 37° |
| 2026-05-09 02:48 | 50.91434 | 137.84984 | 20710 ft | 327 kts | 37° |
| 2026-05-09 02:49 | 50.93160 | 137.87349 | 20720 ft | 327 kts | 37° |
| 2026-05-09 02:49 | 50.94881 | 137.89711 | 20721 ft | 328 kts | 37° |
| 2026-05-09 02:49 | 50.96610 | 137.92088 | 20717 ft | 329 kts | 37° |
| 2026-05-09 02:49 | 50.98341 | 137.94469 | 20719 ft | 330 kts | 37° |
| 2026-05-09 02:50 | 51.00051 | 137.96825 | 20714 ft | 331 kts | 38° |
| 2026-05-09 02:50 | 51.01799 | 137.99234 | 20712 ft | 331 kts | 37° |
| 2026-05-09 02:50 | 51.03528 | 138.01619 | 20715 ft | 331 kts | 38° |
| 2026-05-09 02:50 | 51.05272 | 138.04028 | 20724 ft | 332 kts | 38° |
| 2026-05-09 02:51 | 51.07007 | 138.06426 | 20725 ft | 332 kts | 38° |
| 2026-05-09 02:51 | 51.08753 | 138.08844 | 20729 ft | 333 kts | 38° |
| 2026-05-09 02:51 | 51.10496 | 138.11259 | 20731 ft | 333 kts | 38° |
| 2026-05-09 02:51 | 51.12223 | 138.13654 | 20728 ft | 333 kts | 38° |
| 2026-05-09 02:52 | 51.13793 | 138.15834 | 20730 ft | 334 kts | 38° |
| 2026-05-09 02:52 | 51.15465 | 138.18158 | 20730 ft | 334 kts | 38° |
| 2026-05-09 02:52 | 51.17217 | 138.20595 | 20733 ft | 334 kts | 37° |
| 2026-05-09 02:52 | 51.18584 | 138.22498 | 20735 ft | 334 kts | 37° |
| 2026-05-09 02:53 | 51.20325 | 138.24924 | 20727 ft | 335 kts | 37° |
| 2026-05-09 02:53 | 51.22081 | 138.27373 | 20725 ft | 335 kts | 37° |
| 2026-05-09 02:53 | 51.23842 | 138.29831 | 20719 ft | 336 kts | 37° |
| 2026-05-09 02:53 | 51.25588 | 138.32272 | 20719 ft | 336 kts | 37° |
| 2026-05-09 02:54 | 51.27350 | 138.34740 | 20720 ft | 336 kts | 37° |
| 2026-05-09 02:54 | 51.29101 | 138.37192 | 20717 ft | 336 kts | 37° |
| 2026-05-09 02:54 | 51.30840 | 138.39632 | 20712 ft | 336 kts | 38° |
| 2026-05-09 02:54 | 51.32579 | 138.42075 | 20626 ft | 330 kts | 38° |
| 2026-05-09 02:55 | 51.34311 | 138.44502 | 19899 ft | 330 kts | 37° |
| 2026-05-09 02:55 | 51.36023 | 138.46901 | 18933 ft | 336 kts | 38° |
| 2026-05-09 02:55 | 51.37743 | 138.49318 | 18380 ft | 330 kts | 38° |
| 2026-05-09 02:55 | 51.39461 | 138.51733 | 17754 ft | 321 kts | 38° |
| 2026-05-09 02:56 | 51.41137 | 138.54095 | 16600 ft | 331 kts | 37° |
| 2026-05-09 02:56 | 51.42796 | 138.56442 | 16436 ft | 306 kts | 37° |
| 2026-05-09 02:56 | 51.44381 | 138.58678 | 15393 ft | 315 kts | 37° |
| 2026-05-09 02:56 | 51.45983 | 138.60950 | 14989 ft | 302 kts | 37° |
| 2026-05-09 02:57 | 51.47570 | 138.63197 | 14493 ft | 309 kts | 37° |
| 2026-05-09 02:57 | 51.49193 | 138.65505 | 13998 ft | 313 kts | 38° |
| 2026-05-09 02:57 | 51.50816 | 138.67798 | 13475 ft | 308 kts | 38° |
| 2026-05-09 02:57 | 51.52292 | 138.69893 | 12956 ft | 299 kts | 38° |
| 2026-05-09 02:58 | 51.53739 | 138.71956 | 12436 ft | 291 kts | 38° |
| 2026-05-09 02:58 | 51.55262 | 138.74112 | 11911 ft | 285 kts | 37° |
| 2026-05-09 02:58 | 51.56736 | 138.76221 | 11363 ft | 281 kts | 38° |
| 2026-05-09 02:58 | 51.58182 | 138.78285 | 10863 ft | 276 kts | 38° |
| 2026-05-09 02:59 | 51.59570 | 138.80258 | 10679 ft | 259 kts | 38° |
| 2026-05-09 02:59 | 51.60875 | 138.82126 | 10581 ft | 246 kts | 38° |
| 2026-05-09 02:59 | 51.62154 | 138.83962 | 10546 ft | 250 kts | 38° |
| 2026-05-09 02:59 | 51.63466 | 138.85840 | 10500 ft | 256 kts | 38° |
| 2026-05-09 03:00 | 51.64812 | 138.87770 | 10460 ft | 260 kts | 39° |
| 2026-05-09 03:00 | 51.66182 | 138.89745 | 10431 ft | 271 kts | 38° |
| 2026-05-09 03:00 | 51.67614 | 138.91798 | 10497 ft | 279 kts | 39° |
| 2026-05-09 03:00 | 51.69064 | 138.93887 | 10584 ft | 284 kts | 39° |
| 2026-05-09 03:01 | 51.70566 | 138.96042 | 10652 ft | 289 kts | 39° |
| 2026-05-09 03:01 | 51.72073 | 138.98210 | 10675 ft | 295 kts | 39° |
| 2026-05-09 03:01 | 51.73621 | 139.00444 | 10685 ft | 300 kts | 39° |
| 2026-05-09 03:01 | 51.75176 | 139.02684 | 10704 ft | 305 kts | 39° |
| 2026-05-09 03:02 | 51.76770 | 139.04984 | 10706 ft | 308 kts | 39° |
| 2026-05-09 03:02 | 51.78358 | 139.07275 | 10697 ft | 311 kts | 40° |
| 2026-05-09 03:02 | 51.79977 | 139.09625 | 10702 ft | 312 kts | 39° |
| 2026-05-09 03:02 | 51.81583 | 139.11942 | 10720 ft | 313 kts | 39° |
| 2026-05-09 03:03 | 51.83214 | 139.14304 | 10750 ft | 315 kts | 38° |
| 2026-05-09 03:03 | 51.84826 | 139.16644 | 10738 ft | 315 kts | 39° |
| 2026-05-09 03:03 | 51.86473 | 139.19035 | 10736 ft | 316 kts | 39° |
| 2026-05-09 03:03 | 51.88114 | 139.21422 | 10721 ft | 317 kts | 39° |
| 2026-05-09 03:04 | 51.89745 | 139.23790 | 10716 ft | 318 kts | 39° |
| 2026-05-09 03:04 | 51.91401 | 139.26204 | 10715 ft | 320 kts | 39° |
| 2026-05-09 03:04 | 51.93060 | 139.28621 | 10724 ft | 321 kts | 39° |
| 2026-05-09 03:04 | 51.94706 | 139.31023 | 10727 ft | 322 kts | 39° |
| 2026-05-09 03:05 | 51.96368 | 139.33449 | 10737 ft | 323 kts | 39° |
| 2026-05-09 03:05 | 51.98041 | 139.35895 | 10738 ft | 324 kts | 39° |
| 2026-05-09 03:05 | 51.99720 | 139.38350 | 10738 ft | 325 kts | 39° |
| 2026-05-09 03:05 | 52.01389 | 139.40796 | 10729 ft | 325 kts | 39° |
| 2026-05-09 03:06 | 52.03059 | 139.43243 | 10729 ft | 326 kts | 39° |
| 2026-05-09 03:06 | 52.04753 | 139.45731 | 10731 ft | 327 kts | 39° |
| 2026-05-09 03:06 | 52.06432 | 139.48196 | 10742 ft | 327 kts | 39° |
| 2026-05-09 03:06 | 52.08114 | 139.50673 | 10745 ft | 328 kts | 39° |
| 2026-05-09 03:07 | 52.09792 | 139.53143 | 10744 ft | 328 kts | 39° |
| 2026-05-09 03:07 | 52.11489 | 139.55646 | 10742 ft | 328 kts | 39° |
| 2026-05-09 03:07 | 52.13177 | 139.58136 | 10749 ft | 329 kts | 39° |
| 2026-05-09 03:07 | 52.14624 | 139.60274 | 10752 ft | 329 kts | 39° |
| 2026-05-09 03:08 | 52.16246 | 139.62674 | 10752 ft | 329 kts | 39° |
| 2026-05-09 03:08 | 52.17798 | 139.64970 | 10661 ft | 325 kts | 39° |
| 2026-05-09 03:08 | 52.19455 | 139.67419 | 10262 ft | 310 kts | 40° |
| 2026-05-09 03:08 | 52.21023 | 139.69734 | 9866 ft | 297 kts | 39° |
| 2026-05-09 03:09 | 52.22506 | 139.71927 | 9474 ft | 286 kts | 40° |
| 2026-05-09 03:09 | 52.23957 | 139.74075 | 9080 ft | 277 kts | 40° |
| 2026-05-09 03:09 | 52.25348 | 139.76137 | 8698 ft | 268 kts | 40° |
| 2026-05-09 03:09 | 52.26715 | 139.78166 | 8304 ft | 261 kts | 40° |
| 2026-05-09 03:10 | 52.28034 | 139.80127 | 7915 ft | 254 kts | 39° |
| 2026-05-09 03:10 | 52.29305 | 139.82019 | 7529 ft | 247 kts | 39° |
| 2026-05-09 03:10 | 52.30560 | 139.83890 | 7145 ft | 241 kts | 39° |
| 2026-05-09 03:10 | 52.31817 | 139.85765 | 6770 ft | 251 kts | 40° |
| 2026-05-09 03:11 | 52.33110 | 139.87706 | 6522 ft | 255 kts | 40° |
| 2026-05-09 03:11 | 52.34414 | 139.89661 | 6425 ft | 253 kts | 40° |
| 2026-05-09 03:11 | 52.35696 | 139.91583 | 6377 ft | 250 kts | 40° |
| 2026-05-09 03:11 | 52.36974 | 139.93503 | 6324 ft | 247 kts | 40° |
| 2026-05-09 03:12 | 52.38241 | 139.95404 | 6266 ft | 245 kts | 40° |
| 2026-05-09 03:12 | 52.39485 | 139.97273 | 6206 ft | 243 kts | 40° |
| 2026-05-09 03:12 | 52.40724 | 139.99129 | 6147 ft | 241 kts | 40° |
| 2026-05-09 03:12 | 52.41954 | 140.00987 | 6097 ft | 239 kts | 40° |
| 2026-05-09 03:13 | 52.44374 | 140.04628 | 5986 ft | 235 kts | 39° |
| 2026-05-09 03:13 | 52.45579 | 140.06444 | 5938 ft | 234 kts | 39° |
| 2026-05-09 03:13 | 52.46768 | 140.08238 | 5887 ft | 231 kts | 39° |
| 2026-05-09 03:14 | 52.47941 | 140.10010 | 5822 ft | 230 kts | 39° |
| 2026-05-09 03:14 | 52.49107 | 140.11771 | 5767 ft | 228 kts | 39° |
| 2026-05-09 03:14 | 52.50280 | 140.13542 | 5721 ft | 227 kts | 39° |
| 2026-05-09 03:14 | 52.51437 | 140.15292 | 5672 ft | 225 kts | 39° |
| 2026-05-09 03:15 | 52.52574 | 140.17012 | 5619 ft | 224 kts | 39° |
| 2026-05-09 03:15 | 52.53709 | 140.18732 | 5571 ft | 222 kts | 39° |
| 2026-05-09 03:15 | 52.54853 | 140.20467 | 5522 ft | 221 kts | 39° |
| 2026-05-09 03:15 | 52.55975 | 140.22170 | 5511 ft | 220 kts | 39° |
| 2026-05-09 03:16 | 52.57101 | 140.23880 | 5512 ft | 220 kts | 39° |
| 2026-05-09 03:16 | 52.58223 | 140.25586 | 5517 ft | 219 kts | 39° |
| 2026-05-09 03:16 | 52.59328 | 140.27266 | 5519 ft | 219 kts | 39° |
| 2026-05-09 03:16 | 52.60451 | 140.28976 | 5523 ft | 219 kts | 39° |
| 2026-05-09 03:17 | 52.61570 | 140.30679 | 5531 ft | 218 kts | 39° |
| 2026-05-09 03:17 | 52.62672 | 140.32359 | 5518 ft | 218 kts | 38° |